Time;durP1;ratioP1;P1;durP2;ratioP2;P2;SDS_P1;SDS_P2;PMS_P1;PMS_P2;Temp;Humidity;BMP_temperature;BMP_pressure;BME280_temperature;BME280_humidity;BME280_pressure;Samples;Min_cycle;Max_cycle;Signal;HPM_P1;HPM_P2
2023/01/28 00:02:15;;;;;;;;;;;;;;;-1.86;100.00;96963.41;5056757;28;19960;-71
2023/01/28 00:04:40;;;;;;;;;;;;;;;-2.00;100.00;96962.41;5063353;28;19999;-71
2023/01/28 00:07:06;;;;;;;;;;;;;;;-2.00;100.00;96968.59;5074975;28;19916;-67
2023/01/28 00:09:31;;;;;;;;;;;;;;;-1.86;100.00;96966.06;5047778;28;20058;-71
2023/01/28 00:11:57;;;;;;;;;;;;;;;-1.73;100.00;96960.09;5047690;28;19920;-72
2023/01/28 00:14:23;;;;;;;;;;;;;;;-1.80;100.00;96964.16;5060023;28;20038;-73
2023/01/28 00:16:48;;;;;;;;;;;;;;;-2.02;100.00;96959.22;5047105;28;19956;-72
2023/01/28 00:19:13;;;;;;;;;;;;;;;-1.84;100.00;96961.22;5060072;28;19923;-71
2023/01/28 00:21:39;;;;;;;;;;;;;;;-1.85;100.00;96964.22;5066029;28;19942;-73
2023/01/28 00:24:05;;;;;;;;;;;;;;;-1.93;100.00;96958.38;5061113;28;19921;-70
2023/01/28 00:26:31;;;;;;;;;;;;;;;-2.10;100.00;96952.56;5065368;28;19928;-71
2023/01/28 00:28:56;;;;;;;;;;;;;;;-2.09;100.00;96956.84;5066173;28;20385;-71
2023/01/28 00:31:23;;;;;;;;;;;;;;;-1.95;100.00;96963.19;5060889;28;19931;-72
2023/01/28 00:33:49;;;;;;;;;;;;;;;-1.90;100.00;96958.88;5079425;28;19991;-72
2023/01/28 00:36:15;;;;;;;;;;;;;;;-1.96;100.00;96955.44;5090969;28;20381;-71
2023/01/28 00:38:41;;;;;;;;;;;;;;;-2.03;100.00;96953.06;5079060;28;19965;-70
2023/01/28 00:41:06;;;;;;;;;;;;;;;-2.02;100.00;96957.31;5053871;28;20007;-68
2023/01/28 00:43:32;;;;;;;;;;;;;;;-1.88;100.00;96960.19;5066315;28;20280;-73
2023/01/28 00:45:57;;;;;;;;;;;;;;;-1.97;100.00;96962.66;5064417;28;19950;-71
2023/01/28 00:48:22;;;;;;;;;;;;;;;-1.96;100.00;96956.22;5060098;28;20238;-71
2023/01/28 00:50:47;;;;;;;;;;;;;;;-1.75;100.00;96969.50;5065242;28;19924;-70
2023/01/28 00:53:13;;;;;;;;;;;;;;;-1.64;100.00;96976.41;5039678;28;20328;-71
2023/01/28 00:55:38;;;;;;;;;;;;;;;-1.77;100.00;96969.75;5064834;28;19950;-71
2023/01/28 00:58:03;;;;;;;;;;;;;;;-1.86;100.00;96971.44;5060474;28;19920;-67
2023/01/28 01:00:29;;;;;;;;;;;;;;;-1.85;100.00;96961.53;5045844;28;19916;-69
2023/01/28 01:02:54;;;;;;;;;;;;;;;-1.78;100.00;96968.19;5064959;28;20409;-71
2023/01/28 01:05:19;;;;;;;;;;;;;;;-1.63;100.00;96961.09;5060494;28;19917;-69
2023/01/28 01:07:45;;;;;;;;;;;;;;;-1.34;100.00;96966.47;5065024;28;19925;-74
2023/01/28 01:10:11;;;;;;;;;;;;;;;-1.42;100.00;96965.19;5059343;28;20476;-72
2023/01/28 01:12:37;;;;;;;;;;;;;;;-1.45;100.00;96963.06;5079348;28;19921;-71
2023/01/28 01:15:03;;;;;;;;;;;;;;;-1.33;100.00;96973.47;5061765;28;20358;-69
2023/01/28 01:17:29;;;;;;;;;;;;;;;-1.54;100.00;96970.94;5062859;28;19960;-71
2023/01/28 01:19:55;;;;;;;;;;;;;;;-1.70;100.00;96963.28;5068980;28;19928;-71
2023/01/28 01:22:20;;;;;;;;;;;;;;;-1.61;100.00;96965.09;5059577;28;19916;-71
2023/01/28 01:24:46;;;;;;;;;;;;;;;-1.62;100.00;96966.19;5064435;28;20297;-71
2023/01/28 01:27:11;;;;;;;;;;;;;;;-1.67;100.00;96966.22;5041418;28;19917;-71
2023/01/28 01:29:37;;;;;;;;;;;;;;;-1.50;100.00;96965.78;5078798;28;19993;-71
2023/01/28 01:32:03;;;;;;;;;;;;;;;-1.43;100.00;96966.28;5074304;28;19939;-69
2023/01/28 01:34:28;;;;;;;;;;;;;;;-1.42;100.00;96973.25;5071940;28;20273;-69
2023/01/28 01:36:53;;;;;;;;;;;;;;;-1.67;100.00;96979.66;5064013;28;20415;-70
2023/01/28 01:39:19;;;;;;;;;;;;;;;-1.70;100.00;96974.81;5059218;28;19955;-71
2023/01/28 01:41:44;;;;;;;;;;;;;;;-1.83;100.00;96975.47;5064772;28;20663;-71
2023/01/28 01:44:28;;;;;;;;;;;;;;;-1.80;100.00;96973.03;5058450;28;19940;-72
2023/01/28 01:46:53;;;;;;;;;;;;;;;-1.96;100.00;96980.38;5063366;28;19917;-71
2023/01/28 01:49:22;;;;;;;;;;;;;;;-1.97;100.00;96978.78;5041689;28;19981;-70
2023/01/28 01:51:57;;;;;;;;;;;;;;;-2.00;100.00;96978.53;5064389;28;19966;-71
2023/01/28 01:54:25;;;;;;;;;;;;;;;-1.92;100.00;96977.94;5058341;28;20526;-72
2023/01/28 01:56:51;;;;;;;;;;;;;;;-1.86;100.00;96979.50;5028613;28;20369;-72
2023/01/28 01:59:22;;;;;;;;;;;;;;;-1.75;100.00;96980.22;5058984;28;19928;-71
2023/01/28 02:01:47;;;;;;;;;;;;;;;-1.65;100.00;96988.22;5063832;28;19954;-71
2023/01/28 02:04:26;;;;;;;;;;;;;;;-1.69;100.00;96978.31;5059449;28;20015;-71
2023/01/28 02:06:51;;;;;;;;;;;;;;;-1.90;100.00;96985.72;5062930;28;19943;-70
2023/01/28 02:09:28;;;;;;;;;;;;;;;-1.94;100.00;96983.59;5057677;28;20550;-70
2023/01/28 02:12:13;;;;;;;;;;;;;;;-1.95;100.00;96981.19;5029001;28;20004;-70
2023/01/28 02:14:57;;;;;;;;;;;;;;;-1.96;100.00;96988.44;5062534;28;20365;-70
2023/01/28 02:17:23;;;;;;;;;;;;;;;-1.82;100.00;96988.63;5057901;28;20086;-69
2023/01/28 02:19:56;;;;;;;;;;;;;;;-1.94;100.00;96988.16;5062841;28;19916;-74
2023/01/28 02:22:22;;;;;;;;;;;;;;;-1.97;100.00;96991.41;5073637;28;20899;-68
2023/01/28 02:24:50;;;;;;;;;;;;;;;-1.92;100.00;96989.47;5063947;28;19920;-70
2023/01/28 02:27:15;;;;;;;;;;;;;;;-1.84;100.00;96992.66;5057103;28;19924;-69
2023/01/28 02:30:01;;;;;;;;;;;;;;;-1.85;100.00;96991.06;5062638;28;19921;-71
2023/01/28 02:32:39;;;;;;;;;;;;;;;-1.84;100.00;96992.66;5057913;28;19917;-71
2023/01/28 02:35:23;;;;;;;;;;;;;;;-1.95;100.00;96987.34;5057982;28;19916;-70
2023/01/28 02:37:48;;;;;;;;;;;;;;;-1.98;100.00;96987.91;5062979;28;19917;-71
2023/01/28 02:40:33;;;;;;;;;;;;;;;-1.95;100.00;96990.03;5058106;28;19942;-71
2023/01/28 02:42:58;;;;;;;;;;;;;;;-2.01;100.00;96993.03;5062426;28;19921;-71
2023/01/28 02:48:15;;;;;;;;;;;;;;;-2.00;100.00;96990.09;5064566;28;19950;-70
2023/01/28 02:51:03;;;;;;;;;;;;;;;-1.99;100.00;96985.50;5062698;28;19976;-72
2023/01/28 02:53:58;;;;;;;;;;;;;;;-1.99;100.00;96989.00;5050170;28;19928;-71
2023/01/28 02:56:28;;;;;;;;;;;;;;;-2.02;100.00;96986.06;5007926;28;19929;-71
2023/01/28 02:59:29;;;;;;;;;;;;;;;-1.94;100.00;96988.97;5077463;28;19943;-71
2023/01/28 03:01:57;;;;;;;;;;;;;;;-1.96;100.00;96985.75;5062961;28;19927;-70
2023/01/28 03:04:33;;;;;;;;;;;;;;;-1.88;100.00;96987.03;5072315;28;20317;-70
2023/01/28 03:07:03;;;;;;;;;;;;;;;-1.83;100.00;96984.31;5095502;28;19920;-71
2023/01/28 03:09:29;;;;;;;;;;;;;;;-1.85;100.00;96991.06;5078040;28;19920;-71
2023/01/28 03:36:58;;;;;;;;;;;;;;;-1.99;100.00;96989.00;5062541;28;19924;-70
2023/01/28 03:39:25;;;;;;;;;;;;;;;-1.99;100.00;96988.19;5058694;28;19924;-71
2023/01/28 03:41:58;;;;;;;;;;;;;;;-1.92;100.00;96986.00;5066213;28;19921;-70
2023/01/28 03:47:10;;;;;;;;;;;;;;;-1.85;100.00;96996.44;5061167;28;19939;-69
2023/01/28 03:49:35;;;;;;;;;;;;;;;-1.89;100.00;96996.19;5065395;28;19924;-68
2023/01/28 03:52:01;;;;;;;;;;;;;;;-1.98;100.00;96992.47;5065852;28;20472;-71
2023/01/28 03:54:26;;;;;;;;;;;;;;;-1.86;100.00;97005.56;5043076;28;19925;-70
2023/01/28 03:56:52;;;;;;;;;;;;;;;-1.79;100.00;97004.16;5047429;28;19916;-69
2023/01/28 03:59:17;;;;;;;;;;;;;;;-1.92;100.00;96999.44;5060882;28;19956;-71
2023/01/28 04:01:42;;;;;;;;;;;;;;;-1.89;100.00;97001.56;5084118;28;19920;-71
2023/01/28 04:04:21;;;;;;;;;;;;;;;-2.02;100.00;96999.47;5061380;28;19921;-70
2023/01/28 04:06:47;;;;;;;;;;;;;;;-1.95;100.00;97005.34;5065025;28;19924;-70
2023/01/28 04:09:12;;;;;;;;;;;;;;;-1.93;100.00;97006.69;5060910;28;19929;-71
2023/01/28 04:11:37;;;;;;;;;;;;;;;-1.90;100.00;97007.22;5064767;28;20285;-72
2023/01/28 04:14:03;;;;;;;;;;;;;;;-1.84;100.00;97006.06;5044506;28;19924;-71
2023/01/28 04:16:28;;;;;;;;;;;;;;;-1.89;100.00;97006.94;5064311;28;19917;-73
2023/01/28 04:18:54;;;;;;;;;;;;;;;-1.82;100.00;97004.75;5065763;28;19922;-71
2023/01/28 04:21:19;;;;;;;;;;;;;;;-1.76;100.00;97008.97;5061015;28;20011;-71
2023/01/28 04:23:45;;;;;;;;;;;;;;;-1.90;100.00;97004.53;5064529;28;19917;-71
2023/01/28 04:26:10;;;;;;;;;;;;;;;-1.86;100.00;97013.63;5061159;28;20361;-70
2023/01/28 04:28:36;;;;;;;;;;;;;;;-1.88;100.00;97011.19;5065615;28;19923;-72
2023/01/28 04:31:02;;;;;;;;;;;;;;;-1.87;100.00;97012.00;5065167;28;20011;-71
2023/01/28 04:33:27;;;;;;;;;;;;;;;-1.89;100.00;97016.84;5043368;28;19934;-71
2023/01/28 04:35:52;;;;;;;;;;;;;;;-1.86;100.00;97018.97;5064519;28;20010;-71
2023/01/28 04:38:18;;;;;;;;;;;;;;;-1.76;100.00;97030.47;5042498;28;20434;-71
2023/01/28 04:40:43;;;;;;;;;;;;;;;-1.72;100.00;97017.28;5065472;28;19967;-70
2023/01/28 04:43:08;;;;;;;;;;;;;;;-1.68;100.00;97028.25;5041459;28;19924;-70
2023/01/28 04:45:33;;;;;;;;;;;;;;;-1.73;100.00;97019.16;5046809;28;19973;-70
2023/01/28 04:47:59;;;;;;;;;;;;;;;-1.51;100.00;97025.19;5047614;28;20301;-70
2023/01/28 04:50:24;;;;;;;;;;;;;;;-1.51;100.00;97022.50;5047322;28;19989;-70
2023/01/28 04:52:49;;;;;;;;;;;;;;;-1.67;100.00;97025.31;5065263;28;19963;-71
2023/01/28 04:55:14;;;;;;;;;;;;;;;-1.81;100.00;97022.44;5041193;28;19916;-71
2023/01/28 04:57:40;;;;;;;;;;;;;;;-1.55;100.00;97022.25;5064956;28;19917;-71
2023/01/28 05:00:05;;;;;;;;;;;;;;;-1.78;100.00;97035.31;5043444;28;19923;-71
2023/01/28 05:02:30;;;;;;;;;;;;;;;-1.77;100.00;97031.53;5080127;28;20024;-70
2023/01/28 05:04:56;;;;;;;;;;;;;;;-1.74;100.00;97030.97;5065153;28;19928;-70
2023/01/28 05:07:21;;;;;;;;;;;;;;;-1.76;100.00;97027.78;5059675;28;20023;-71
2023/01/28 05:09:46;;;;;;;;;;;;;;;-1.80;100.00;97031.28;5064607;28;19970;-71
2023/01/28 05:12:12;;;;;;;;;;;;;;;-1.90;100.00;97037.53;5059808;28;19916;-70
2023/01/28 05:14:37;;;;;;;;;;;;;;;-1.88;100.00;97035.38;5064517;28;20011;-71
2023/01/28 05:17:02;;;;;;;;;;;;;;;-2.02;100.00;97035.16;5062141;28;19917;-70
2023/01/28 05:19:27;;;;;;;;;;;;;;;-1.76;100.00;97033.16;5061577;28;19922;-74
2023/01/28 05:21:53;;;;;;;;;;;;;;;-1.81;100.00;97040.44;5064965;28;19924;-70
2023/01/28 05:24:20;;;;;;;;;;;;;;;-1.95;100.00;97041.03;5059086;28;19924;-71
2023/01/28 05:26:45;;;;;;;;;;;;;;;-1.93;100.00;97049.63;5064159;28;19916;-72
2023/01/28 05:29:10;;;;;;;;;;;;;;;-1.66;100.00;97045.69;5059691;28;20385;-70
2023/01/28 05:31:36;;;;;;;;;;;;;;;-1.71;100.00;97050.31;5073570;28;19931;-71
2023/01/28 05:34:01;;;;;;;;;;;;;;;-1.66;100.00;97051.06;5080118;28;19948;-72
2023/01/28 05:36:26;;;;;;;;;;;;;;;-1.87;100.00;97044.22;5074398;28;19924;-70
2023/01/28 05:38:51;;;;;;;;;;;;;;;-1.83;100.00;97053.34;5075886;28;19939;-69
2023/01/28 05:41:17;;;;;;;;;;;;;;;-1.77;100.00;97047.63;5072145;28;20019;-71
2023/01/28 05:43:42;;;;;;;;;;;;;;;-1.95;100.00;97049.09;5072198;28;19924;-71
2023/01/28 05:46:07;;;;;;;;;;;;;;;-1.97;100.00;97055.81;5067975;28;19916;-70
2023/01/28 05:48:33;;;;;;;;;;;;;;;-1.96;100.00;97052.06;5066486;28;19916;-71
2023/01/28 05:50:58;;;;;;;;;;;;;;;-1.90;100.00;97061.69;5064002;28;20392;-70
2023/01/28 05:53:23;;;;;;;;;;;;;;;-1.93;100.00;97046.13;5058902;28;19917;-71
2023/01/28 05:55:49;;;;;;;;;;;;;;;-1.99;100.00;97061.47;5063331;28;19927;-72
2023/01/28 05:58:15;;;;;;;;;;;;;;;-1.90;100.00;97059.00;5057924;28;19978;-72
2023/01/28 06:00:40;;;;;;;;;;;;;;;-1.94;100.00;97058.75;5062536;28;19917;-71
2023/01/28 06:03:05;;;;;;;;;;;;;;;-1.87;100.00;97063.84;5058214;28;20328;-69
2023/01/28 06:05:31;;;;;;;;;;;;;;;-1.94;100.00;97061.44;5072409;28;19916;-71
2023/01/28 06:07:56;;;;;;;;;;;;;;;-1.89;100.00;97066.00;5083092;28;19951;-71
2023/01/28 06:10:21;;;;;;;;;;;;;;;-1.94;100.00;97063.34;5058175;28;19932;-73
2023/01/28 06:12:47;;;;;;;;;;;;;;;-1.80;100.00;97063.50;5061993;28;19920;-70
2023/01/28 06:15:12;;;;;;;;;;;;;;;-2.00;100.00;97067.09;5041838;28;19920;-70
2023/01/28 06:17:38;;;;;;;;;;;;;;;-1.99;100.00;97069.53;5063179;28;20365;-72
2023/01/28 06:20:04;;;;;;;;;;;;;;;-1.84;100.00;97079.38;5058644;28;19970;-70
2023/01/28 06:22:29;;;;;;;;;;;;;;;-1.78;100.00;97072.13;5062880;28;19924;-71
2023/01/28 06:24:55;;;;;;;;;;;;;;;-1.73;100.00;97077.44;5045040;28;20327;-70
2023/01/28 06:27:20;;;;;;;;;;;;;;;-1.86;100.00;97070.78;5073312;28;19956;-71
2023/01/28 06:29:45;;;;;;;;;;;;;;;-1.94;100.00;97074.88;5066911;28;19920;-69
2023/01/28 06:32:11;;;;;;;;;;;;;;;-1.91;100.00;97086.91;5060662;28;19916;-70
2023/01/28 06:34:36;;;;;;;;;;;;;;;-1.95;100.00;97075.94;5068462;28;19920;-71
2023/01/28 06:37:03;;;;;;;;;;;;;;;-1.71;100.00;97085.22;5061848;28;19974;-69
2023/01/28 06:39:30;;;;;;;;;;;;;;;-1.65;100.00;97089.50;5062037;28;19916;-70
2023/01/28 06:41:56;;;;;;;;;;;;;;;-1.89;100.00;97090.16;5067545;28;19932;-69
2023/01/28 06:44:22;;;;;;;;;;;;;;;-1.95;100.00;97093.94;5048463;28;19938;-72
2023/01/28 06:46:47;;;;;;;;;;;;;;;-1.84;100.00;97084.75;5050906;28;19920;-71
2023/01/28 06:49:12;;;;;;;;;;;;;;;-1.89;100.00;97084.78;5045151;28;20374;-70
2023/01/28 06:51:38;;;;;;;;;;;;;;;-1.88;100.00;97088.28;5069028;28;20026;-70
2023/01/28 06:54:03;;;;;;;;;;;;;;;-1.81;100.00;97094.94;5044778;28;19917;-68
2023/01/28 06:56:28;;;;;;;;;;;;;;;-1.91;100.00;97089.59;5044226;28;20373;-72
2023/01/28 06:58:54;;;;;;;;;;;;;;;-1.93;100.00;97097.97;5044843;28;19917;-73
2023/01/28 07:01:19;;;;;;;;;;;;;;;-2.05;100.00;97092.13;5062096;28;19952;-70
2023/01/28 07:03:44;;;;;;;;;;;;;;;-2.06;100.00;97101.22;5067438;28;19938;-70
2023/01/28 07:06:09;;;;;;;;;;;;;;;-2.02;100.00;97098.78;5062809;28;19916;-71
2023/01/28 07:08:36;;;;;;;;;;;;;;;-2.09;100.00;97101.75;5065496;28;19916;-70
2023/01/28 07:11:02;;;;;;;;;;;;;;;-2.05;100.00;97096.66;5059634;28;19930;-69
2023/01/28 07:13:28;;;;;;;;;;;;;;;-1.99;100.00;97107.09;5042005;28;20293;-69
2023/01/28 07:15:53;;;;;;;;;;;;;;;-2.07;100.00;97098.81;5064985;28;19917;-70
2023/01/28 07:18:18;;;;;;;;;;;;;;;-2.08;100.00;97106.06;5043419;28;19920;-71
2023/01/28 07:20:44;;;;;;;;;;;;;;;-1.96;100.00;97105.75;5085599;28;19921;-69
2023/01/28 07:23:10;;;;;;;;;;;;;;;-1.95;100.00;97110.84;5042101;28;20381;-69
2023/01/28 07:25:35;;;;;;;;;;;;;;;-1.94;100.00;97106.28;5046765;28;19990;-69
2023/01/28 07:28:00;;;;;;;;;;;;;;;-1.86;100.00;97110.28;5065674;28;19917;-69
2023/01/28 07:30:26;;;;;;;;;;;;;;;-1.91;100.00;97111.09;5060510;28;19925;-69
2023/01/28 07:32:54;;;;;;;;;;;;;;;-1.96;100.00;97111.13;5065911;28;19962;-71
2023/01/28 07:35:20;;;;;;;;;;;;;;;-2.03;100.00;97119.47;5043072;28;19970;-68
2023/01/28 07:37:58;;;;;;;;;;;;;;;-1.94;100.00;97122.41;5065253;28;19920;-71
2023/01/28 07:40:24;;;;;;;;;;;;;;;-1.89;100.00;97118.88;5061811;28;19986;-70
2023/01/28 07:42:50;;;;;;;;;;;;;;;-1.77;100.00;97114.78;5047359;28;20011;-71
2023/01/28 07:45:15;;;;;;;;;;;;;;;-1.42;100.00;97125.63;5059950;28;20047;-70
2023/01/28 07:47:41;;;;;;;;;;;;;;;-0.94;100.00;97130.38;5063981;28;19916;-70
2023/01/28 07:50:07;;;;;;;;;;;;;;;-0.72;100.00;97128.03;5060048;28;20011;-70
2023/01/28 07:52:37;;;;;;;;;;;;;;;-0.04;100.00;97127.06;5048251;28;20377;-70
2023/01/28 07:55:03;;;;;;;;;;;;;;;-0.74;100.00;97142.84;5062765;28;19916;-69
2023/01/28 07:57:29;;;;;;;;;;;;;;;-0.71;100.00;97131.53;5079260;28;19996;-70
2023/01/28 07:59:54;;;;;;;;;;;;;;;-0.10;100.00;97138.97;5078672;28;19917;-70
2023/01/28 08:02:20;;;;;;;;;;;;;;;0.36;96.99;97143.81;5076151;28;19920;-70
2023/01/28 08:04:45;;;;;;;;;;;;;;;0.34;98.88;97148.69;5073542;28;19917;-71
2023/01/28 08:07:10;;;;;;;;;;;;;;;0.35;96.93;97138.72;5067369;28;19960;-70
2023/01/28 08:09:36;;;;;;;;;;;;;;;-0.06;96.79;97153.47;5065831;28;20450;-70
2023/01/28 08:12:01;;;;;;;;;;;;;;;0.44;96.90;97155.03;5064933;28;20328;-71
2023/01/28 08:14:27;;;;;;;;;;;;;;;0.27;96.27;97174.38;5059980;28;20001;-70
2023/01/28 08:16:52;;;;;;;;;;;;;;;-0.38;98.39;97175.59;5064335;28;19921;-70
2023/01/28 08:19:20;;;;;;;;;;;;;;;-0.41;100.00;97185.06;5058445;28;19960;-70
2023/01/28 08:21:48;;;;;;;;;;;;;;;-1.01;100.00;97184.47;5064507;28;19927;-71
2023/01/28 08:24:13;;;;;;;;;;;;;;;-1.16;100.00;97183.47;5060213;28;19916;-71
2023/01/28 08:26:39;;;;;;;;;;;;;;;-0.94;100.00;97187.63;5064226;28;20411;-71
2023/01/28 08:29:04;;;;;;;;;;;;;;;-1.21;100.00;97191.56;5060144;28;19921;-70
2023/01/28 08:31:29;;;;;;;;;;;;;;;-1.31;99.90;97194.34;5064708;28;19977;-70
2023/01/28 08:33:55;;;;;;;;;;;;;;;-1.25;100.00;97189.72;5063620;28;20011;-72
2023/01/28 08:36:20;;;;;;;;;;;;;;;-1.30;100.00;97203.19;5059992;28;19917;-72
2023/01/28 08:38:46;;;;;;;;;;;;;;;-1.34;100.00;97202.94;5064151;28;19927;-70
2023/01/28 08:41:11;;;;;;;;;;;;;;;-1.11;100.00;97200.69;5059121;28;19966;-71
2023/01/28 08:43:36;;;;;;;;;;;;;;;-1.29;100.00;97200.22;5065391;28;20293;-71
2023/01/28 08:46:04;;;;;;;;;;;;;;;-1.29;100.00;97204.81;5062330;28;19916;-69
2023/01/28 08:48:29;;;;;;;;;;;;;;;-1.35;100.00;97212.09;5064438;28;20358;-71
2023/01/28 08:50:57;;;;;;;;;;;;;;;-1.34;100.00;97208.31;5063710;28;19928;-71
2023/01/28 08:53:22;;;;;;;;;;;;;;;-1.50;100.00;97204.09;5059833;28;20017;-71
2023/01/28 08:55:47;;;;;;;;;;;;;;;-1.45;100.00;97210.25;5063682;28;19955;-71
2023/01/28 08:58:14;;;;;;;;;;;;;;;-1.52;100.00;97201.69;5059314;28;19917;-69
2023/01/28 09:00:40;;;;;;;;;;;;;;;-1.50;97.92;97201.41;5082741;28;19920;-69
2023/01/28 09:03:05;;;;;;;;;;;;;;;-1.52;96.85;97203.59;5075117;28;19927;-68
2023/01/28 09:05:32;;;;;;;;;;;;;;;-1.47;97.33;97200.88;5064792;28;19917;-70
2023/01/28 09:08:02;;;;;;;;;;;;;;;-1.30;96.70;97211.25;5065545;28;20280;-70
2023/01/28 09:10:27;;;;;;;;;;;;;;;-1.33;98.07;97218.00;5042365;28;19986;-70
2023/01/28 09:12:52;;;;;;;;;;;;;;;-1.45;97.85;97204.88;5064843;28;19917;-71
2023/01/28 09:15:18;;;;;;;;;;;;;;;-1.19;94.77;97210.09;5059194;28;20350;-71
2023/01/28 09:17:43;;;;;;;;;;;;;;;-1.33;95.04;97212.63;5062859;28;19917;-70
2023/01/28 09:20:09;;;;;;;;;;;;;;;-1.44;94.20;97205.69;5055122;28;19916;-71
2023/01/28 09:22:35;;;;;;;;;;;;;;;-1.24;93.12;97216.34;5064117;28;19951;-70
2023/01/28 09:25:00;;;;;;;;;;;;;;;-1.35;91.63;97212.91;5075335;28;19905;-70
2023/01/28 09:27:25;;;;;;;;;;;;;;;-1.36;92.87;97213.16;5079746;28;19952;-70
2023/01/28 09:29:50;;;;;;;;;;;;;;;-1.39;92.00;97222.59;5064195;28;20022;-68
2023/01/28 09:32:16;;;;;;;;;;;;;;;-1.25;93.12;97228.16;5059001;28;20404;-71
2023/01/28 09:34:43;;;;;;;;;;;;;;;-1.30;92.81;97222.81;5063554;28;19916;-73
2023/01/28 09:37:08;;;;;;;;;;;;;;;-1.22;93.36;97224.91;5061404;28;19920;-74
2023/01/28 09:39:34;;;;;;;;;;;;;;;-0.82;92.52;97233.81;5068628;28;19931;-73
2023/01/28 09:42:05;;;;;;;;;;;;;;;-0.62;90.85;97232.06;5067221;28;19917;-72
2023/01/28 09:44:36;;;;;;;;;;;;;;;-0.01;88.85;97230.72;5047807;28;19948;-72
2023/01/28 09:47:04;;;;;;;;;;;;;;;0.00;88.22;97232.34;5065377;28;19917;-73
2023/01/28 09:49:44;;;;;;;;;;;;;;;0.25;87.04;97225.84;5070845;28;19909;-73
2023/01/28 09:52:15;;;;;;;;;;;;;;;0.15;86.40;97232.16;5083029;28;19908;-73
2023/01/28 09:54:43;;;;;;;;;;;;;;;-0.08;87.43;97238.31;5084605;28;19921;-72
2023/01/28 09:57:26;;;;;;;;;;;;;;;-0.22;88.27;97244.38;5081017;28;19975;-72
2023/01/28 09:59:52;;;;;;;;;;;;;;;-0.02;86.90;97240.69;5066471;28;19926;-73
2023/01/28 10:02:35;;;;;;;;;;;;;;;0.11;87.17;97246.47;5049186;28;19955;-73
2023/01/28 10:05:15;;;;;;;;;;;;;;;-0.08;85.60;97230.25;5072407;28;19917;-73
2023/01/28 10:07:40;;;;;;;;;;;;;;;-0.41;89.00;97240.78;5058259;28;20333;-72
2023/01/28 10:10:12;;;;;;;;;;;;;;;-0.19;87.33;97240.31;5060489;28;19963;-73
2023/01/28 10:12:59;;;;;;;;;;;;;;;-0.41;88.96;97221.94;5064357;28;19927;-73
2023/01/28 10:15:43;;;;;;;;;;;;;;;-0.52;87.26;97228.47;5059395;28;19973;-70
2023/01/28 10:18:09;;;;;;;;;;;;;;;-0.68;88.19;97223.22;5056665;28;20277;-67
2023/01/28 10:20:37;;;;;;;;;;;;;;;-0.67;88.41;97224.03;5062749;28;19916;-67
2023/01/28 10:23:07;;;;;;;;;;;;;;;-0.85;89.01;97220.91;5060172;28;19916;-66
2023/01/28 10:25:33;;;;;;;;;;;;;;;-0.74;89.19;97228.91;5044284;28;19923;-67
2023/01/28 10:27:59;;;;;;;;;;;;;;;-0.64;89.80;97226.94;5062722;28;19927;-66
2023/01/28 10:30:26;;;;;;;;;;;;;;;-0.49;89.77;97223.31;5074441;28;19916;-67
2023/01/28 10:32:58;;;;;;;;;;;;;;;-0.36;88.09;97232.66;5072476;28;19921;-67
2023/01/28 10:35:23;;;;;;;;;;;;;;;-0.47;87.88;97223.06;5066652;28;19917;-67
2023/01/28 10:37:51;;;;;;;;;;;;;;;-0.22;87.11;97228.22;5068999;28;19928;-65
2023/01/28 10:40:17;;;;;;;;;;;;;;;-0.18;87.77;97222.25;5068944;28;19916;-65
2023/01/28 10:42:43;;;;;;;;;;;;;;;-0.11;86.35;97214.66;5062500;28;19927;-67
2023/01/28 10:45:35;;;;;;;;;;;;;;;-0.32;86.08;97220.25;5057810;28;19916;-67
2023/01/28 10:48:06;;;;;;;;;;;;;;;-0.22;86.68;97222.03;5059175;28;20382;-67
2023/01/28 10:50:31;;;;;;;;;;;;;;;-0.11;86.35;97222.72;5041488;28;19921;-67
2023/01/28 10:52:58;;;;;;;;;;;;;;;-0.23;87.88;97220.44;5061551;28;19966;-67
2023/01/28 10:55:25;;;;;;;;;;;;;;;-0.27;88.08;97214.00;5038707;28;20367;-65
2023/01/28 10:57:52;;;;;;;;;;;;;;;-0.39;87.53;97228.63;5061556;28;19986;-67
2023/01/28 11:00:25;;;;;;;;;;;;;;;-0.43;88.25;97222.22;5072319;28;19971;-69
2023/01/28 11:02:50;;;;;;;;;;;;;;;-0.44;89.04;97222.50;5061433;28;20027;-70
2023/01/28 11:05:16;;;;;;;;;;;;;;;-0.30;89.58;97223.44;5056051;28;20039;-69
2023/01/28 11:07:41;;;;;;;;;;;;;;;-0.41;87.99;97217.34;5062121;28;19931;-69
2023/01/28 11:10:26;;;;;;;;;;;;;;;-0.50;89.19;97221.75;5005102;28;19935;-69
2023/01/28 11:12:55;;;;;;;;;;;;;;;-0.39;89.01;97220.56;5046672;28;20333;-68
2023/01/28 11:15:20;;;;;;;;;;;;;;;-0.61;89.31;97221.03;5037483;28;20015;-67
2023/01/28 11:17:48;;;;;;;;;;;;;;;-0.58;90.03;97233.09;5041855;28;20015;-70
2023/01/28 11:20:23;;;;;;;;;;;;;;;-0.56;89.87;97225.53;5037144;28;19916;-70
2023/01/28 11:22:49;;;;;;;;;;;;;;;-0.64;89.86;97226.16;5041406;28;19960;-70
2023/01/28 11:25:17;;;;;;;;;;;;;;;-0.58;90.31;97227.72;5037540;28;19952;-70
2023/01/28 11:27:46;;;;;;;;;;;;;;;-0.59;90.69;97229.59;5033030;28;19921;-70
2023/01/28 11:30:20;;;;;;;;;;;;;;;-0.55;90.85;97227.16;5035997;28;19939;-70
2023/01/28 11:32:52;;;;;;;;;;;;;;;-0.62;90.43;97237.44;5041227;28;19980;-71
2023/01/28 11:35:29;;;;;;;;;;;;;;;-0.55;89.59;97231.75;5052379;28;20020;-71
2023/01/28 11:37:54;;;;;;;;;;;;;;;-0.57;91.05;97221.25;5040924;28;20023;-71
2023/01/28 11:40:20;;;;;;;;;;;;;;;-0.63;90.90;97228.56;5038082;28;19974;-69
2023/01/28 11:42:52;;;;;;;;;;;;;;;-0.64;91.41;97223.47;5042091;28;19924;-70
2023/01/28 11:45:20;;;;;;;;;;;;;;;-0.43;90.89;97216.03;5033858;28;19922;-70
2023/01/28 11:47:48;;;;;;;;;;;;;;;-0.59;91.95;97213.47;5023306;28;19928;-69
2023/01/28 11:50:16;;;;;;;;;;;;;;;-0.60;92.42;97213.75;5035565;28;19917;-69
2023/01/28 11:53:01;;;;;;;;;;;;;;;-0.61;92.20;97221.03;5041961;28;19923;-68
2023/01/28 11:55:32;;;;;;;;;;;;;;;-0.61;91.90;97220.22;5036630;28;19920;-68
2023/01/28 11:58:05;;;;;;;;;;;;;;;-0.58;92.08;97211.56;5042466;28;20447;-69
2023/01/28 12:00:49;;;;;;;;;;;;;;;-0.63;91.04;97220.50;5041849;28;20345;-69
2023/01/28 12:03:14;;;;;;;;;;;;;;;-0.51;91.31;97219.31;5042382;28;19921;-69
2023/01/28 12:05:51;;;;;;;;;;;;;;;-0.50;91.21;97212.88;5045513;28;19970;-70
2023/01/28 12:08:19;;;;;;;;;;;;;;;-0.51;91.92;97217.44;5040605;28;19924;-70
2023/01/28 12:10:53;;;;;;;;;;;;;;;-0.57;92.50;97207.00;5062328;28;19917;-70
2023/01/28 12:13:37;;;;;;;;;;;;;;;-0.43;92.87;97216.84;5041427;28;19916;-70
2023/01/28 12:16:12;;;;;;;;;;;;;;;-0.44;90.80;97209.03;5043023;28;19925;-67
2023/01/28 12:18:37;;;;;;;;;;;;;;;-0.44;91.92;97201.75;5051220;28;19925;-69
2023/01/28 12:21:08;;;;;;;;;;;;;;;-0.42;92.62;97207.66;5050140;28;20034;-68
2023/01/28 12:23:36;;;;;;;;;;;;;;;-0.43;93.33;97210.66;5044661;28;20007;-69
2023/01/28 12:26:10;;;;;;;;;;;;;;;-0.53;91.73;97197.28;5044179;28;20428;-69
2023/01/28 12:28:38;;;;;;;;;;;;;;;-0.41;91.85;97203.91;5043345;28;19943;-68
2023/01/28 12:31:23;;;;;;;;;;;;;;;-0.52;93.23;97197.00;5040611;28;20316;-70
2023/01/28 12:34:23;;;;;;;;;;;;;;;-0.25;94.12;97203.78;5044713;28;20528;-67
2023/01/28 12:36:48;;;;;;;;;;;;;;;-0.18;99.01;97209.63;4981827;28;19993;-67
2023/01/28 12:39:14;;;;;;;;;;;;;;;-0.43;95.20;97200.69;5012061;28;20397;-65
2023/01/28 12:41:41;;;;;;;;;;;;;;;-0.27;95.00;97205.91;5045734;28;19917;-66
2023/01/28 12:44:13;;;;;;;;;;;;;;;-0.36;93.90;97210.31;5043680;28;19927;-66
2023/01/28 12:46:54;;;;;;;;;;;;;;;-0.33;93.98;97201.69;5077015;28;20309;-65
2023/01/28 12:49:28;;;;;;;;;;;;;;;-0.29;94.26;97202.72;5052865;28;19956;-66
2023/01/28 12:52:13;;;;;;;;;;;;;;;-0.06;95.87;97204.63;5045545;28;19921;-67
2023/01/28 12:54:42;;;;;;;;;;;;;;;-0.08;95.59;97206.00;5042463;28;19917;-68
2023/01/28 12:57:12;;;;;;;;;;;;;;;-0.42;94.14;97204.97;5038557;28;20371;-68
2023/01/28 12:59:42;;;;;;;;;;;;;;;-0.60;93.96;97201.09;5044091;28;19943;-68
2023/01/28 13:02:10;;;;;;;;;;;;;;;-0.59;94.51;97202.69;5039556;28;19925;-68
2023/01/28 13:04:35;;;;;;;;;;;;;;;-0.57;94.24;97198.94;5055444;28;19901;-67
2023/01/28 13:07:12;;;;;;;;;;;;;;;-0.56;94.30;97211.28;5054982;28;19955;-68
2023/01/28 13:09:42;;;;;;;;;;;;;;;-0.62;93.09;97203.25;5034871;28;19916;-68
2023/01/28 13:12:09;;;;;;;;;;;;;;;-0.56;94.09;97214.78;5034952;28;19920;-68
2023/01/28 13:14:34;;;;;;;;;;;;;;;-0.43;95.46;97214.16;5047276;28;20441;-70
2023/01/28 13:17:23;;;;;;;;;;;;;;;-0.31;95.34;97211.06;5059869;28;19921;-71